Time;durP1;ratioP1;P1;durP2;ratioP2;P2;SDS_P1;SDS_P2;PMS_P1;PMS_P2;Temp;Humidity;BMP_temperature;BMP_pressure;BME280_temperature;BME280_humidity;BME280_pressure;Samples;Min_cycle;Max_cycle;Signal;HPM_P1;HPM_P2
2021/04/16 00:02:27;;;;;;;5.18;2.80;;;4.40;98.90;;;;;;5065300;28;20041;-72
2021/04/16 00:04:52;;;;;;;4.45;2.50;;;4.40;99.00;;;;;;5064484;28;20133;-72
2021/04/16 00:07:18;;;;;;;3.95;2.58;;;4.40;98.80;;;;;;5064955;28;20048;-72
2021/04/16 00:09:44;;;;;;;5.18;2.60;;;4.30;98.90;;;;;;5068919;28;20036;-72
2021/04/16 00:12:10;;;;;;;4.88;2.85;;;4.30;98.90;;;;;;5084809;28;20515;-72
2021/04/16 00:14:36;;;;;;;5.55;2.75;;;4.20;99.50;;;;;;5084222;28;20048;-72
2021/04/16 00:17:04;;;;;;;7.53;3.10;;;4.10;99.60;;;;;;5088384;28;20040;-72
2021/04/16 00:19:30;;;;;;;6.13;3.10;;;4.00;99.50;;;;;;5088091;28;20037;-71
2021/04/16 00:21:56;;;;;;;5.28;2.80;;;4.00;99.90;;;;;;5088268;28;20076;-71
2021/04/16 00:24:22;;;;;;;6.35;2.78;;;4.00;99.90;;;;;;5087155;28;20047;-72
2021/04/16 00:26:48;;;;;;;4.75;3.20;;;3.90;99.90;;;;;;5088144;28;20044;-72
2021/04/16 00:29:14;;;;;;;6.35;2.80;;;3.80;99.90;;;;;;5085987;28;20055;-72
2021/04/16 00:31:50;;;;;;;9.43;2.95;;;3.70;99.90;;;;;;5076331;28;20044;-72
2021/04/16 00:34:19;;;;;;;7.53;3.15;;;3.60;99.90;;;;;;5087832;28;20108;-72
2021/04/16 00:36:45;;;;;;;5.90;2.50;;;3.40;99.90;;;;;;5088338;28;20096;-72
2021/04/16 00:39:11;;;;;;;7.35;2.92;;;3.30;99.90;;;;;;5088517;28;20053;-72
2021/04/16 00:41:37;;;;;;;7.10;2.88;;;3.10;99.90;;;;;;5088291;28;20119;-72
2021/04/16 00:44:03;;;;;;;6.03;2.80;;;3.00;99.90;;;;;;5087917;28;20461;-71
2021/04/16 00:46:46;;;;;;;7.85;3.40;;;2.80;99.90;;;;;;5088300;28;20056;-71
2021/04/16 00:49:18;;;;;;;4.75;2.75;;;2.70;99.90;;;;;;5087681;28;20040;-71
2021/04/16 00:51:47;;;;;;;4.65;2.95;;;2.50;99.90;;;;;;5087880;28;20109;-71
2021/04/16 00:54:17;;;;;;;4.38;2.70;;;2.40;99.90;;;;;;5087961;28;20492;-71
2021/04/16 00:56:46;;;;;;;7.45;2.90;;;2.30;99.90;;;;;;5087824;28;20051;-71
2021/04/16 00:59:13;;;;;;;5.13;2.97;;;2.30;99.90;;;;;;5081491;28;20052;-71
2021/04/16 01:01:39;;;;;;;7.82;2.75;;;2.40;99.90;;;;;;5067095;28;20508;-71
2021/04/16 01:04:05;;;;;;;6.40;3.17;;;2.50;99.90;;;;;;5067563;28;20052;-71
2021/04/16 01:06:31;;;;;;;6.38;3.10;;;2.60;99.90;;;;;;5067463;28;20048;-71
2021/04/16 01:08:57;;;;;;;8.75;3.25;;;2.70;99.90;;;;;;5067570;28;20049;-71
2021/04/16 01:11:26;;;;;;;6.25;2.72;;;2.70;99.90;;;;;;5067140;28;20087;-71
2021/04/16 01:13:53;;;;;;;7.15;3.20;;;2.70;99.90;;;;;;5067323;28;20053;-72
2021/04/16 01:16:24;;;;;;;6.22;2.95;;;2.70;99.90;;;;;;5067473;28;20090;-72
2021/04/16 01:18:52;;;;;;;4.53;2.63;;;2.50;99.90;;;;;;5067232;28;20064;-72
2021/04/16 01:21:26;;;;;;;7.40;2.90;;;2.40;99.90;;;;;;5067015;28;20045;-72
2021/04/16 01:24:25;;;;;;;5.78;2.95;;;2.30;99.90;;;;;;5087196;28;20072;-72
2021/04/16 01:26:51;;;;;;;6.00;3.65;;;2.10;99.90;;;;;;5086370;28;20412;-71
2021/04/16 01:29:18;;;;;;;5.38;2.88;;;2.00;99.90;;;;;;5086712;28;20071;-72
2021/04/16 01:31:47;;;;;;;8.90;3.25;;;2.00;99.90;;;;;;5069550;28;20037;-72
2021/04/16 01:34:31;;;;;;;8.25;3.33;;;2.00;99.90;;;;;;5067181;28;20055;-71
2021/04/16 01:36:58;;;;;;;6.80;3.13;;;2.10;99.90;;;;;;5070031;28;20135;-71
2021/04/16 01:39:26;;;;;;;8.00;4.05;;;2.20;99.90;;;;;;5086758;28;20040;-71
2021/04/16 01:41:53;;;;;;;9.38;4.05;;;2.30;99.90;;;;;;5086247;28;20045;-71
2021/04/16 01:44:23;;;;;;;8.40;3.03;;;2.40;99.90;;;;;;5083709;28;20067;-71
2021/04/16 01:46:51;;;;;;;6.50;3.15;;;2.50;99.90;;;;;;5086551;28;20051;-71
2021/04/16 01:49:19;;;;;;;8.68;3.65;;;2.60;99.90;;;;;;5086451;28;20142;-71
2021/04/16 01:51:46;;;;;;;8.05;4.28;;;2.70;99.90;;;;;;5085652;28;20512;-72
2021/04/16 01:54:21;;;;;;;9.25;4.03;;;2.60;99.90;;;;;;5086430;28;20048;-71
2021/04/16 01:56:51;;;;;;;8.23;3.60;;;2.70;99.90;;;;;;5086410;28;20046;-72
2021/04/16 01:59:26;;;;;;;6.35;3.90;;;2.60;99.90;;;;;;5074253;28;20052;-72
2021/04/16 02:01:51;;;;;;;10.50;4.00;;;2.60;99.90;;;;;;5066184;28;20064;-72
2021/04/16 02:04:18;;;;;;;9.40;4.50;;;2.60;99.90;;;;;;5066778;28;20045;-72
2021/04/16 02:06:45;;;;;;;9.32;4.25;;;2.60;99.90;;;;;;5066385;28;20041;-71
2021/04/16 02:09:15;;;;;;;6.22;3.60;;;2.60;99.90;;;;;;5066272;28;20056;-71
2021/04/16 02:11:42;;;;;;;11.57;4.90;;;2.50;99.90;;;;;;5065946;28;20098;-71
2021/04/16 02:14:13;;;;;;;8.48;4.70;;;2.50;99.90;;;;;;5066496;28;20120;-71
2021/04/16 02:16:40;;;;;;;6.85;4.18;;;2.60;99.90;;;;;;5064506;28;20573;-72
2021/04/16 02:19:06;;;;;;;10.35;4.22;;;2.50;99.90;;;;;;5066146;28;20052;-72
2021/04/16 02:21:33;;;;;;;9.25;4.18;;;2.50;99.90;;;;;;5085623;28;20041;-72
2021/04/16 02:23:59;;;;;;;9.32;4.63;;;2.50;99.90;;;;;;5085701;28;20050;-72
2021/04/16 02:26:25;;;;;;;9.23;5.00;;;2.50;99.90;;;;;;5085485;28;20044;-71
2021/04/16 02:28:51;;;;;;;14.68;5.00;;;2.50;99.90;;;;;;5085679;28;20122;-72
2021/04/16 02:31:17;;;;;;;6.50;4.53;;;2.40;99.90;;;;;;5067096;28;20040;-72
2021/04/16 02:33:44;;;;;;;9.02;4.28;;;2.40;99.90;;;;;;5066050;28;20048;-72
2021/04/16 02:36:10;;;;;;;9.45;4.13;;;2.30;99.90;;;;;;5066382;28;20041;-71
2021/04/16 02:38:36;;;;;;;6.75;4.47;;;2.30;99.90;;;;;;5064915;28;20059;-72
2021/04/16 02:41:03;;;;;;;7.85;4.35;;;2.10;99.90;;;;;;5067480;28;20124;-71
2021/04/16 02:43:30;;;;;;;10.65;4.28;;;2.00;99.90;;;;;;5082624;28;20047;-71
2021/04/16 02:45:56;;;;;;;11.18;4.60;;;1.90;99.90;;;;;;5085338;28;20053;-72
2021/04/16 02:48:21;;;;;;;7.65;4.00;;;2.00;99.90;;;;;;5085540;28;20513;-72
2021/04/16 02:50:48;;;;;;;7.00;4.07;;;2.00;99.90;;;;;;5085049;28;20036;-72
2021/04/16 02:53:14;;;;;;;7.60;3.92;;;1.80;99.90;;;;;;5085443;28;20045;-72
2021/04/16 02:55:40;;;;;;;8.77;3.92;;;1.60;99.90;;;;;;5085901;28;20065;-72
2021/04/16 02:58:08;;;;;;;7.93;4.10;;;1.50;99.90;;;;;;5086108;28;20055;-72
2021/04/16 03:00:34;;;;;;;10.27;5.07;;;1.40;99.90;;;;;;5069240;28;20052;-71
2021/04/16 03:03:00;;;;;;;6.25;4.15;;;1.40;99.90;;;;;;5069906;28;20045;-71
2021/04/16 03:05:26;;;;;;;6.93;4.07;;;1.40;99.90;;;;;;5085348;28;20040;-71
2021/04/16 03:07:53;;;;;;;8.73;4.20;;;1.30;99.90;;;;;;5067293;28;20064;-71
2021/04/16 03:10:29;;;;;;;14.05;6.30;;;1.30;99.90;;;;;;5085284;28;20047;-71
2021/04/16 03:12:54;;;;;;;8.75;4.75;;;1.30;99.90;;;;;;5084856;28;20047;-71
2021/04/16 03:15:21;;;;;;;7.80;4.38;;;1.40;99.90;;;;;;5084997;28;20045;-71
2021/04/16 03:17:47;;;;;;;10.07;4.10;;;1.40;99.90;;;;;;5085045;28;20072;-71
2021/04/16 03:20:14;;;;;;;9.07;4.60;;;1.40;99.90;;;;;;5085245;28;20401;-71
2021/04/16 03:22:40;;;;;;;6.78;4.28;;;1.40;99.90;;;;;;5084618;28;20086;-72
2021/04/16 03:25:09;;;;;;;9.13;4.40;;;1.30;99.90;;;;;;5085147;28;20110;-72
2021/04/16 03:27:36;;;;;;;7.20;4.20;;;1.20;99.90;;;;;;5084683;28;20068;-71
2021/04/16 03:30:04;;;;;;;8.48;4.75;;;1.10;99.90;;;;;;5085455;28;20329;-71
2021/04/16 03:32:29;;;;;;;11.68;6.80;;;1.10;99.90;;;;;;5084867;28;20056;-71
2021/04/16 03:34:55;;;;;;;13.75;6.47;;;1.40;99.90;;;;;;5085094;28;20056;-71
2021/04/16 03:37:22;;;;;;;10.38;6.22;;;1.70;99.90;;;;;;5085245;28;20046;-71
2021/04/16 03:39:47;;;;;;;13.45;5.38;;;1.80;99.90;;;;;;5085192;28;20068;-71
2021/04/16 03:42:13;;;;;;;8.45;4.72;;;1.70;99.90;;;;;;5084642;28;20040;-71
2021/04/16 03:44:39;;;;;;;6.93;4.38;;;1.40;99.90;;;;;;5084424;28;20128;-71
2021/04/16 03:47:05;;;;;;;6.35;4.43;;;1.20;99.90;;;;;;5085250;28;20049;-71
2021/04/16 03:49:30;;;;;;;11.55;4.95;;;1.00;99.90;;;;;;5084119;28;20121;-71
2021/04/16 03:52:00;;;;;;;9.25;4.85;;;0.90;99.90;;;;;;5084728;28;20506;-71
2021/04/16 03:54:27;;;;;;;10.27;5.07;;;0.90;99.90;;;;;;5088700;28;20036;-71
2021/04/16 03:56:53;;;;;;;10.65;5.10;;;0.80;99.90;;;;;;5088670;28;20040;-71
2021/04/16 03:59:22;;;;;;;11.30;4.93;;;0.80;99.90;;;;;;5078821;28;20064;-71
2021/04/16 04:01:48;;;;;;;11.27;5.28;;;0.80;99.90;;;;;;5067984;28;20458;-71
2021/04/16 04:04:15;;;;;;;11.00;4.95;;;0.70;99.90;;;;;;5068323;28;20049;-71
2021/04/16 04:06:41;;;;;;;8.90;4.85;;;0.60;99.90;;;;;;5068546;28;20114;-71
2021/04/16 04:09:07;;;;;;;13.68;5.70;;;0.70;99.90;;;;;;5068748;28;20123;-72
2021/04/16 04:11:34;;;;;;;9.73;6.07;;;0.80;99.90;;;;;;5068494;28;20072;-71
2021/04/16 04:14:00;;;;;;;11.38;5.30;;;0.80;99.90;;;;;;5069026;28;20041;-71
2021/04/16 04:16:27;;;;;;;9.73;4.72;;;0.70;99.90;;;;;;5068706;28;20045;-71
2021/04/16 04:18:54;;;;;;;11.88;5.15;;;0.70;99.90;;;;;;5068395;28;20049;-71
2021/04/16 04:21:20;;;;;;;9.50;5.15;;;0.70;99.90;;;;;;5068354;28;20136;-71
2021/04/16 04:23:46;;;;;;;9.70;5.97;;;0.60;99.90;;;;;;5068163;28;20036;-71
2021/04/16 04:26:11;;;;;;;9.35;4.35;;;0.70;99.90;;;;;;5068143;28;20057;-72
2021/04/16 04:28:37;;;;;;;9.95;4.80;;;0.70;99.90;;;;;;5070375;28;20048;-72
2021/04/16 04:31:03;;;;;;;14.48;5.25;;;0.80;99.90;;;;;;5087986;28;20048;-71
2021/04/16 04:33:29;;;;;;;9.07;4.82;;;0.60;99.90;;;;;;5087674;28;20504;-71
2021/04/16 04:35:55;;;;;;;8.10;5.00;;;0.60;99.90;;;;;;5088113;28;20611;-71
2021/04/16 04:38:21;;;;;;;8.75;5.20;;;0.60;99.90;;;;;;5086408;28;20044;-71
2021/04/16 04:40:47;;;;;;;11.02;6.15;;;0.60;99.90;;;;;;5087851;28;20068;-71
2021/04/16 04:43:13;;;;;;;12.02;5.10;;;0.60;99.90;;;;;;5084708;28;20033;-71
2021/04/16 04:45:39;;;;;;;8.75;4.78;;;0.60;99.90;;;;;;5068178;28;20045;-71
2021/04/16 04:48:05;;;;;;;10.63;5.68;;;0.60;99.90;;;;;;5067894;28;20159;-71
2021/04/16 04:50:31;;;;;;;10.10;5.40;;;0.60;99.90;;;;;;5076397;28;20083;-72
2021/04/16 04:52:57;;;;;;;12.90;6.47;;;0.70;99.90;;;;;;5088240;28;20051;-71
2021/04/16 04:55:27;;;;;;;11.85;6.10;;;0.60;99.90;;;;;;5087949;28;20045;-71
2021/04/16 04:57:53;;;;;;;11.40;6.45;;;0.60;99.90;;;;;;5069514;28;20052;-72
2021/04/16 05:00:20;;;;;;;11.45;6.03;;;0.70;99.90;;;;;;5080411;28;20131;-71
2021/04/16 05:02:46;;;;;;;9.73;5.95;;;0.70;99.90;;;;;;5066092;28;20061;-71
2021/04/16 05:05:14;;;;;;;12.23;6.60;;;0.80;99.90;;;;;;5067111;28;20060;-71
2021/04/16 05:07:40;;;;;;;15.95;6.97;;;0.80;99.90;;;;;;5081259;28;20048;-71
2021/04/16 05:10:07;;;;;;;13.45;6.97;;;0.80;99.90;;;;;;5087103;28;20066;-71
2021/04/16 05:12:33;;;;;;;17.30;6.70;;;0.90;99.90;;;;;;5087339;28;20119;-71
2021/04/16 05:14:59;;;;;;;13.88;6.03;;;0.90;99.90;;;;;;5086906;28;20051;-71
2021/04/16 05:17:24;;;;;;;11.05;5.82;;;0.90;99.90;;;;;;5087199;28;20072;-72
2021/04/16 05:19:51;;;;;;;10.20;5.80;;;1.00;99.90;;;;;;5087452;28;20056;-71
2021/04/16 05:22:17;;;;;;;15.55;8.57;;;1.20;99.90;;;;;;5086567;28;20051;-71
2021/04/16 05:24:43;;;;;;;20.30;9.07;;;1.30;99.90;;;;;;5038519;28;20044;-70
2021/04/16 05:27:12;;;;;;;19.50;9.20;;;1.60;99.90;;;;;;5088027;28;20060;-73
2021/04/16 05:29:38;;;;;;;17.83;8.82;;;1.80;99.90;;;;;;5091128;28;20041;-70
2021/04/16 05:32:05;;;;;;;18.50;9.40;;;1.90;99.90;;;;;;5084341;28;21162;-70
2021/04/16 05:34:32;;;;;;;18.83;8.98;;;2.10;99.90;;;;;;5079738;28;20059;-69
2021/04/16 05:36:58;;;;;;;14.25;7.97;;;2.10;99.90;;;;;;5081649;28;20048;-69
2021/04/16 05:39:24;;;;;;;25.17;8.98;;;2.20;99.90;;;;;;5081413;28;20078;-70
2021/04/16 05:41:50;;;;;;;17.25;7.00;;;2.30;99.90;;;;;;5079393;28;20476;-69
2021/04/16 05:44:17;;;;;;;13.30;6.97;;;2.30;99.90;;;;;;5075401;28;20587;-70
2021/04/16 05:46:43;;;;;;;12.68;7.78;;;2.30;99.90;;;;;;5080274;28;20040;-69
2021/04/16 05:49:09;;;;;;;15.32;7.55;;;2.30;99.90;;;;;;5078793;28;20105;-70
2021/04/16 05:51:36;;;;;;;13.60;7.65;;;2.30;99.90;;;;;;5081779;28;20049;-70
2021/04/16 05:54:03;;;;;;;12.65;6.25;;;2.40;99.90;;;;;;5079537;28;20077;-70
2021/04/16 05:56:29;;;;;;;13.98;7.60;;;2.40;99.90;;;;;;5083554;28;20055;-69
2021/04/16 05:58:55;;;;;;;11.18;6.03;;;2.50;99.90;;;;;;5078309;28;20040;-70
2021/04/16 06:01:21;;;;;;;8.95;6.32;;;2.50;99.90;;;;;;5085563;28;20040;-68
2021/04/16 06:03:49;;;;;;;13.07;8.05;;;2.60;99.90;;;;;;5076926;28;20084;-68
2021/04/16 06:06:15;;;;;;;10.35;6.22;;;2.70;99.90;;;;;;5065978;28;20044;-72
2021/04/16 06:08:41;;;;;;;12.82;6.47;;;2.80;99.90;;;;;;5074071;28;20071;-71
2021/04/16 06:11:07;;;;;;;12.35;6.60;;;2.80;99.90;;;;;;5085427;28;20055;-68
2021/04/16 06:13:35;;;;;;;16.17;6.55;;;2.90;99.90;;;;;;5075421;28;20064;-68
2021/04/16 06:16:02;;;;;;;13.65;7.78;;;3.00;99.90;;;;;;5086058;28;20048;-68
2021/04/16 06:18:28;;;;;;;14.38;7.03;;;3.20;99.90;;;;;;5072898;28;20060;-68
2021/04/16 06:20:54;;;;;;;15.77;7.35;;;3.30;99.90;;;;;;5088250;28;20040;-68
2021/04/16 06:23:20;;;;;;;12.65;6.90;;;3.50;99.90;;;;;;5070262;28;20048;-68
2021/04/16 06:25:45;;;;;;;14.93;6.57;;;3.70;99.90;;;;;;5060510;28;20080;-68
2021/04/16 06:28:14;;;;;;;13.75;7.20;;;3.80;99.90;;;;;;5066629;28;20063;-68
2021/04/16 06:30:42;;;;;;;15.85;6.95;;;3.90;99.90;;;;;;5092503;28;20041;-68
2021/04/16 06:33:28;;;;;;;17.63;7.03;;;3.90;99.90;;;;;;5070365;28;20881;-70
2021/04/16 06:35:57;;;;;;;14.75;6.57;;;3.90;99.90;;;;;;5086005;28;20050;-70
2021/04/16 06:38:26;;;;;;;12.65;7.20;;;4.00;99.90;;;;;;5068036;28;20102;-70
2021/04/16 06:40:54;;;;;;;15.43;7.35;;;4.10;99.90;;;;;;4587421;28;10000008;-69
2021/04/16 06:43:23;;;;;;;13.80;6.90;;;4.10;99.90;;;;;;5072024;28;20048;-70
2021/04/16 06:45:56;;;;;;;16.38;6.63;;;4.20;99.90;;;;;;5086945;28;20599;-70
2021/04/16 06:48:21;;;;;;;13.60;7.30;;;4.30;99.90;;;;;;5088156;28;20048;-69
2021/04/16 06:50:49;;;;;;;18.50;7.18;;;4.30;99.90;;;;;;5084127;28;20769;-70
2021/04/16 06:53:26;;;;;;;13.70;6.97;;;4.30;99.90;;;;;;5079875;28;20061;-69
2021/04/16 06:56:02;;;;;;;15.25;7.00;;;4.40;99.90;;;;;;5092619;28;20100;-69
2021/04/16 06:58:37;;;;;;;14.50;7.53;;;4.50;99.90;;;;;;5087222;28;20391;-69
2021/04/16 07:01:37;;;;;;;17.48;7.35;;;4.50;99.90;;;;;;5093819;28;20100;-69
2021/04/16 07:04:24;;;;;;;9.40;6.97;;;4.50;99.90;;;;;;5078559;28;20088;-69
2021/04/16 07:06:57;;;;;;;17.92;7.38;;;4.60;99.90;;;;;;5075374;28;20131;-68
2021/04/16 07:09:36;;;;;;;13.60;6.50;;;4.70;99.90;;;;;;5086071;28;20051;-69
2021/04/16 07:12:13;;;;;;;10.15;6.05;;;4.80;99.90;;;;;;5079449;28;20040;-69
2021/04/16 07:14:51;;;;;;;12.48;6.78;;;4.90;99.90;;;;;;5088513;28;20043;-70
2021/04/16 07:17:20;;;;;;;11.90;6.22;;;4.90;99.90;;;;;;5098153;28;20046;-70
2021/04/16 07:19:47;;;;;;;15.43;5.43;;;5.00;99.90;;;;;;5087034;28;20122;-70
2021/04/16 07:22:25;;;;;;;15.13;6.45;;;5.10;99.90;;;;;;5098611;28;20050;-70
2021/04/16 07:24:53;;;;;;;12.55;5.38;;;5.20;99.90;;;;;;5065422;28;20048;-70
2021/04/16 07:27:23;;;;;;;13.98;6.28;;;5.30;99.90;;;;;;5078371;28;20055;-70
2021/04/16 07:29:53;;;;;;;14.73;6.05;;;5.40;99.90;;;;;;5064239;28;20048;-70
2021/04/16 07:32:26;;;;;;;11.82;4.95;;;5.50;99.90;;;;;;5075780;28;20059;-69
2021/04/16 07:34:54;;;;;;;9.35;5.55;;;5.50;99.90;;;;;;5080539;28;20044;-69
2021/04/16 07:37:27;;;;;;;10.80;5.35;;;5.60;99.90;;;;;;5095564;28;20054;-69
2021/04/16 07:40:04;;;;;;;12.80;5.72;;;5.70;99.90;;;;;;5071113;28;20087;-69
2021/04/16 07:42:48;;;;;;;10.10;4.93;;;5.80;99.90;;;;;;5073899;28;20032;-69
2021/04/16 07:45:20;;;;;;;10.07;3.70;;;5.90;99.90;;;;;;5066033;28;20069;-70
2021/04/16 07:47:47;;;;;;;12.07;4.15;;;6.00;99.90;;;;;;5078197;28;20100;-69
2021/04/16 07:50:41;;;;;;;7.53;3.60;;;6.10;99.90;;;;;;5067878;28;20187;-69
2021/04/16 07:53:28;;;;;;;10.60;3.60;;;6.30;99.90;;;;;;5075924;28;20508;-70
2021/04/16 07:56:15;;;;;;;4.53;3.42;;;6.30;99.90;;;;;;5045118;28;20504;-68
2021/04/16 07:59:02;;;;;;;5.43;2.65;;;6.40;99.90;;;;;;5071933;28;20048;-68
2021/04/16 08:01:34;;;;;;;4.90;2.67;;;6.60;99.90;;;;;;5093738;28;20416;-69
2021/04/16 08:04:08;;;;;;;6.07;3.10;;;6.70;99.90;;;;;;5072626;28;20060;-70
2021/04/16 08:06:39;;;;;;;7.00;2.67;;;6.80;99.90;;;;;;5057876;28;20048;-79
2021/04/16 08:09:13;;;;;;;4.88;2.72;;;6.90;99.90;;;;;;5072263;28;20083;-75
2021/04/16 08:11:40;;;;;;;6.60;2.78;;;7.00;99.00;;;;;;5083411;28;20045;-74
2021/04/16 08:14:22;;;;;;;3.33;2.00;;;7.20;98.50;;;;;;5069412;28;20092;-73
2021/04/16 08:17:03;;;;;;;4.13;1.85;;;7.20;97.00;;;;;;5088101;28;20044;-75
2021/04/16 08:19:30;;;;;;;5.43;1.90;;;7.30;96.30;;;;;;5076896;28;20051;-75
2021/04/16 08:22:17;;;;;;;2.95;1.85;;;7.40;94.60;;;;;;5084798;28;20048;-69
2021/04/16 08:25:08;;;;;;;5.13;1.85;;;7.50;94.90;;;;;;5061151;28;20044;-69
2021/04/16 08:28:05;;;;;;;4.20;2.03;;;7.50;94.30;;;;;;5075479;28;20138;-69
2021/04/16 08:30:56;;;;;;;4.90;1.50;;;7.70;93.20;;;;;;5076482;28;20583;-70
2021/04/16 08:33:31;;;;;;;2.47;1.50;;;7.80;91.50;;;;;;5066251;28;20060;-70
2021/04/16 08:36:00;;;;;;;2.20;1.50;;;7.90;90.30;;;;;;5086024;28;20060;-70
2021/04/16 08:38:35;;;;;;;3.20;1.85;;;8.00;89.90;;;;;;5071351;28;20052;-70
2021/04/16 08:41:04;;;;;;;2.80;1.73;;;8.10;90.80;;;;;;5085579;28;20572;-70
2021/04/16 08:43:43;;;;;;;5.90;2.42;;;8.30;90.10;;;;;;5070572;28;20104;-70
2021/04/16 08:46:30;;;;;;;3.30;2.10;;;8.40;90.20;;;;;;5092806;28;20048;-70
2021/04/16 08:49:04;;;;;;;4.95;2.08;;;8.60;90.30;;;;;;5066368;28;20364;-70
2021/04/16 08:51:34;;;;;;;3.35;1.60;;;8.60;90.40;;;;;;5083781;28;20048;-70
2021/04/16 08:54:14;;;;;;;4.05;1.80;;;8.70;89.00;;;;;;5073579;28;20591;-70
2021/04/16 08:56:50;;;;;;;2.35;1.67;;;8.80;90.00;;;;;;5100729;28;20040;-70
2021/04/16 08:59:17;;;;;;;3.47;1.50;;;8.70;91.20;;;;;;5076730;28;20586;-70
2021/04/16 09:02:16;;;;;;;11.20;1.67;;;8.80;87.40;;;;;;5087553;28;20036;-70
2021/04/16 09:04:52;;;;;;;1.90;1.27;;;8.90;86.90;;;;;;5079032;28;20040;-70
2021/04/16 09:07:31;;;;;;;2.45;1.13;;;9.00;87.40;;;;;;5068214;28;20052;-70
2021/04/16 09:09:58;;;;;;;6.13;1.70;;;9.20;85.40;;;;;;5069523;28;20048;-70
2021/04/16 09:12:39;;;;;;;2.67;1.50;;;9.30;85.40;;;;;;5080304;28;20071;-70
2021/04/16 09:15:24;;;;;;;2.58;1.30;;;9.40;88.50;;;;;;5074850;28;20058;-70
2021/04/16 09:17:53;;;;;;;4.32;1.55;;;9.40;85.70;;;;;;5099968;28;20070;-70
2021/04/16 09:20:34;;;;;;;2.33;1.52;;;9.60;85.10;;;;;;5076063;28;20044;-70
2021/04/16 09:23:03;;;;;;;7.53;2.40;;;9.60;84.10;;;;;;5100485;28;20047;-70
2021/04/16 09:25:32;;;;;;;2.92;1.58;;;9.70;85.30;;;;;;5064175;28;20149;-70
2021/04/16 09:28:23;;;;;;;3.03;1.17;;;9.70;85.10;;;;;;5097083;28;20071;-70
2021/04/16 09:30:54;;;;;;;6.18;1.55;;;9.90;81.60;;;;;;5069753;28;20268;-70
2021/04/16 09:33:27;;;;;;;3.17;1.45;;;10.00;83.40;;;;;;5080117;28;20036;-70
2021/04/16 09:36:06;;;;;;;3.42;1.40;;;10.00;85.00;;;;;;5074945;28;20124;-70
2021/04/16 09:38:54;;;;;;;4.10;1.50;;;10.10;85.20;;;;;;5100319;28;20040;-70
2021/04/16 09:41:22;;;;;;;2.60;1.50;;;10.10;83.60;;;;;;5063567;28;20140;-70
2021/04/16 09:43:54;;;;;;;1.83;1.30;;;10.20;82.60;;;;;;5064761;28;20083;-69
2021/04/16 09:46:32;;;;;;;2.58;1.25;;;10.20;80.90;;;;;;5039794;28;20037;-69
2021/04/16 09:49:05;;;;;;;2.92;1.23;;;10.30;82.30;;;;;;5061954;28;20148;-70
2021/04/16 09:51:44;;;;;;;3.17;1.35;;;10.40;82.50;;;;;;5088988;28;20040;-69
2021/04/16 09:54:13;;;;;;;2.97;2.05;;;10.60;82.60;;;;;;5073367;28;20040;-70
2021/04/16 09:57:02;;;;;;;3.20;2.03;;;10.60;85.20;;;;;;5067163;28;20043;-70
2021/04/16 09:59:38;;;;;;;1.92;1.30;;;10.70;83.20;;;;;;5061630;28;20052;-72
2021/04/16 10:02:11;;;;;;;3.42;1.48;;;10.80;82.50;;;;;;5075889;28;20044;-69
2021/04/16 10:05:32;;;;;;;6.55;1.65;;;10.80;81.30;;;;;;5060900;28;20040;-69
2021/04/16 10:08:17;;;;;;;2.60;1.38;;;11.00;77.50;;;;;;4964198;28;20054;-68
2021/04/16 10:10:43;;;;;;;1.85;1.38;;;11.00;80.30;;;;;;4960114;28;20129;-68
2021/04/16 10:13:20;;;;;;;3.95;1.80;;;11.10;78.80;;;;;;4969349;28;20461;-70
2021/04/16 10:15:49;;;;;;;4.00;1.55;;;11.10;80.70;;;;;;4963891;28;20296;-68
2021/04/16 10:18:17;;;;;;;4.10;1.75;;;11.20;79.10;;;;;;4973153;28;20097;-68
2021/04/16 10:20:57;;;;;;;2.38;1.50;;;11.10;82.70;;;;;;4967113;28;20094;-71
2021/04/16 10:23:35;;;;;;;3.75;1.48;;;11.20;80.80;;;;;;4967638;28;20059;-66
2021/04/16 10:40:58;;;;;;;4.20;1.60;;;11.80;77.40;;;;;;4956318;28;20065;-69
2021/04/16 10:58:06;;;;;;;5.60;2.00;;;12.00;82.80;;;;;;5063197;28;20052;-68
2021/04/16 12:40:09;;;;;;;6.47;2.55;;;14.60;69.80;;;;;;5077667;28;20049;-71
2021/04/16 12:42:35;;;;;;;5.18;1.80;;;14.80;60.00;;;;;;5075569;28;20040;-70
2021/04/16 12:45:01;;;;;;;3.08;1.75;;;14.40;59.20;;;;;;5050463;28;20064;-70
2021/04/16 12:47:31;;;;;;;3.75;1.77;;;14.40;60.50;;;;;;5077773;28;20051;-71
2021/04/16 12:49:59;;;;;;;2.35;1.52;;;14.30;61.00;;;;;;5068889;28;20056;-71
2021/04/16 12:52:25;;;;;;;4.63;2.00;;;14.50;57.40;;;;;;5096781;28;20340;-71
2021/04/16 12:54:52;;;;;;;2.75;1.95;;;14.70;60.20;;;;;;5083593;28;20052;-71
2021/04/16 12:57:38;;;;;;;6.90;2.00;;;14.90;57.40;;;;;;5074530;28;20048;-71
2021/04/16 13:00:09;;;;;;;2.97;1.90;;;15.00;62.10;;;;;;5057047;28;20053;-72
2021/04/16 13:02:35;;;;;;;5.15;2.20;;;14.90;58.40;;;;;;5070554;28;20068;-68
2021/04/16 13:05:07;;;;;;;3.80;1.80;;;14.80;60.90;;;;;;5069446;28;20048;-67
2021/04/16 13:07:33;;;;;;;3.55;2.03;;;15.10;59.20;;;;;;5067473;28;20055;-68
2021/04/16 13:09:59;;;;;;;5.22;2.20;;;15.20;58.40;;;;;;5069558;28;20052;-68
2021/04/16 13:12:26;;;;;;;3.83;2.45;;;15.40;55.00;;;;;;5078145;28;20043;-68
2021/04/16 13:14:52;;;;;;;7.00;2.10;;;15.40;60.10;;;;;;5073090;28;20114;-67
2021/04/16 13:17:21;;;;;;;2.72;1.80;;;15.50;57.20;;;;;;5088600;28;20036;-68
2021/04/16 13:19:48;;;;;;;4.60;2.22;;;15.60;54.50;;;;;;5068881;28;20079;-68
2021/04/16 13:22:17;;;;;;;2.97;2.20;;;15.40;54.10;;;;;;5080070;28;20044;-68
2021/04/16 13:24:44;;;;;;;4.25;2.10;;;15.40;55.20;;;;;;5054525;28;20376;-68
2021/04/16 13:27:17;;;;;;;4.63;2.30;;;15.50;55.00;;;;;;5089968;28;20071;-68
2021/04/16 13:29:43;;;;;;;5.07;2.38;;;15.70;60.90;;;;;;5067655;28;20089;-68
2021/04/16 13:32:12;;;;;;;4.90;2.63;;;15.60;58.70;;;;;;5080578;28;20074;-68
2021/04/16 13:34:40;;;;;;;5.10;2.58;;;15.60;58.90;;;;;;5069167;28;20036;-70
2021/04/16 13:37:08;;;;;;;4.18;2.38;;;15.40;59.40;;;;;;5081232;28;20458;-71
2021/04/16 13:39:34;;;;;;;4.63;2.83;;;15.30;60.70;;;;;;5068492;28;20100;-71
2021/04/16 13:42:00;;;;;;;4.65;2.70;;;15.40;64.60;;;;;;5080292;28;20044;-71
2021/04/16 13:44:26;;;;;;;6.15;2.72;;;15.90;61.40;;;;;;5074920;28;20097;-71
2021/04/16 13:46:52;;;;;;;7.28;2.60;;;16.30;60.10;;;;;;5077067;28;20091;-68
2021/04/16 13:49:21;;;;;;;5.00;2.78;;;16.60;57.60;;;;;;5077154;28;20036;-69
2021/04/16 13:51:47;;;;;;;5.63;2.38;;;17.30;55.00;;;;;;5071258;28;20340;-71
2021/04/16 13:54:14;;;;;;;3.95;2.70;;;18.10;51.00;;;;;;5077116;28;20052;-71
2021/04/16 13:56:40;;;;;;;6.82;3.13;;;17.80;49.70;;;;;;5084902;28;20054;-71
2021/04/16 13:59:06;;;;;;;5.68;2.15;;;17.70;51.60;;;;;;5076318;28;20042;-71
2021/04/16 14:01:32;;;;;;;5.53;2.35;;;17.60;50.10;;;;;;5062897;28;20179;-71
2021/04/16 14:04:05;;;;;;;4.88;2.00;;;17.30;50.40;;;;;;5079330;28;20036;-71
2021/04/16 14:06:36;;;;;;;5.03;2.45;;;17.20;51.20;;;;;;5065462;28;20149;-71
2021/04/16 14:09:11;;;;;;;4.38;2.70;;;16.90;52.50;;;;;;5076544;28;20050;-71
2021/04/16 14:11:37;;;;;;;4.03;2.30;;;16.80;50.40;;;;;;5083971;28;20059;-71
2021/04/16 14:14:07;;;;;;;4.00;2.30;;;16.60;52.30;;;;;;5079579;28;20440;-71
2021/04/16 14:16:37;;;;;;;3.22;2.05;;;16.30;51.20;;;;;;5083660;28;20054;-74
2021/04/16 14:19:21;;;;;;;6.05;2.50;;;16.20;51.20;;;;;;5070917;28;20048;-75
2021/04/16 14:21:50;;;;;;;3.60;2.80;;;16.90;50.30;;;;;;5060950;28;20036;-74
2021/04/16 14:24:16;;;;;;;6.47;2.20;;;18.20;50.30;;;;;;5052354;28;20047;-75
2021/04/16 14:26:44;;;;;;;11.45;2.50;;;19.70;48.10;;;;;;5079348;28;20048;-75
2021/04/16 14:29:10;;;;;;;3.60;2.33;;;21.10;42.10;;;;;;5078434;28;20048;-74
2021/04/16 14:31:44;;;;;;;3.80;2.20;;;22.00;38.40;;;;;;5066562;28;20047;-72
2021/04/16 14:34:18;;;;;;;4.03;2.20;;;22.80;35.50;;;;;;5076361;28;20045;-74
2021/04/16 14:36:44;;;;;;;4.95;2.45;;;23.40;35.10;;;;;;5070852;28;20048;-76
2021/04/16 14:39:10;;;;;;;2.72;2.03;;;23.40;34.10;;;;;;5071757;28;20036;-77
2021/04/16 14:41:37;;;;;;;3.88;2.20;;;23.60;33.40;;;;;;5068712;28;20052;-76
2021/04/16 14:44:05;;;;;;;4.53;1.67;;;23.60;32.30;;;;;;5077368;28;20071;-76
2021/04/16 14:46:31;;;;;;;4.10;2.20;;;23.00;32.00;;;;;;5056502;28;20099;-76
2021/04/16 14:48:57;;;;;;;3.08;1.80;;;22.10;32.70;;;;;;5075593;28;20092;-76
2021/04/16 14:51:27;;;;;;;5.03;2.10;;;20.80;34.70;;;;;;5076453;28;20078;-77
2021/04/16 14:54:10;;;;;;;2.90;1.80;;;20.20;37.20;;;;;;5077829;28;20049;-78
2021/04/16 14:56:36;;;;;;;6.38;2.10;;;20.10;36.40;;;;;;5082233;28;20125;-81
2021/04/16 14:59:42;;;;;;;4.25;2.33;;;20.10;37.20;;;;;;5075039;28;20423;-76
2021/04/16 15:02:08;;;;;;;3.67;1.95;;;20.40;35.80;;;;;;5080696;28;20048;-74
2021/04/16 15:04:34;;;;;;;6.63;2.40;;;20.40;35.90;;;;;;5073792;28;20080;-74
2021/04/16 15:07:06;;;;;;;4.22;2.22;;;21.60;36.00;;;;;;5036969;28;20076;-74
2021/04/16 15:09:53;;;;;;;6.43;2.42;;;22.90;35.10;;;;;;5067416;28;21007;-67
2021/04/16 15:12:22;;;;;;;3.97;2.10;;;23.90;33.50;;;;;;5065830;28;20052;-68
2021/04/16 15:14:51;;;;;;;3.08;2.33;;;24.70;31.80;;;;;;5097341;28;20071;-67
2021/04/16 15:17:18;;;;;;;4.30;2.30;;;25.40;30.10;;;;;;5061891;28;20066;-68